Time;durP1;ratioP1;P1;durP2;ratioP2;P2;SDS_P1;SDS_P2;PMS_P1;PMS_P2;Temp;Humidity;BMP_temperature;BMP_pressure;BME280_temperature;BME280_humidity;BME280_pressure;Samples;Min_cycle;Max_cycle;Signal;HPM_P1;HPM_P2
2021/04/08 00:02:19;;;;;;;66.12;26.10;;;;;;;-2.25;68.06;96866.20;1799967;79;25701;-80
2021/04/08 00:04:47;;;;;;;75.52;26.05;;;;;;;-2.35;67.88;96868.05;1799966;79;25857;-80
2021/04/08 00:07:14;;;;;;;75.40;24.63;;;;;;;-2.41;67.90;96864.64;1799847;79;27545;-80
2021/04/08 00:09:42;;;;;;;76.65;26.40;;;;;;;-2.48;67.96;96859.60;1779944;79;25755;-80
2021/04/08 00:12:10;;;;;;;73.25;24.98;;;;;;;-2.56;67.83;96866.45;1767680;81;25883;-80
2021/04/08 00:14:37;;;;;;;58.48;21.27;;;;;;;-2.65;67.83;96862.00;1767828;80;26317;-80
2021/04/08 00:17:05;;;;;;;50.08;21.07;;;;;;;-2.62;67.95;96873.61;1767747;80;25784;-80
2021/04/08 00:19:32;;;;;;;48.13;20.50;;;;;;;-2.70;67.88;96864.25;1767780;80;27698;-80
2021/04/08 00:22:00;;;;;;;49.80;20.68;;;;;;;-2.74;68.04;96863.34;1767597;80;25714;-80
2021/04/08 00:24:27;;;;;;;43.73;19.20;;;;;;;-2.85;68.00;96862.19;1767831;81;25766;-80
2021/04/08 00:26:55;;;;;;;54.67;21.50;;;;;;;-2.97;68.21;96859.70;1767810;81;25595;-80
2021/04/08 00:29:22;;;;;;;76.22;23.35;;;;;;;-2.96;68.39;96860.55;1767747;81;26188;-81
2021/04/08 00:31:50;;;;;;;54.58;21.40;;;;;;;-2.99;67.97;96858.17;1767768;80;27540;-80
2021/04/08 00:34:17;;;;;;;48.58;18.45;;;;;;;-3.07;67.96;96862.84;1767605;80;26421;-80
2021/04/08 00:36:44;;;;;;;49.80;18.77;;;;;;;-3.09;68.18;96865.27;1767659;80;25762;-81
2021/04/08 00:39:12;;;;;;;50.25;19.20;;;;;;;-3.09;68.40;96862.63;1767679;81;25739;-80
2021/04/08 00:41:40;;;;;;;46.83;16.32;;;;;;;-3.10;68.33;96872.36;1767742;80;25773;-80
2021/04/08 00:44:08;;;;;;;54.50;21.93;;;;;;;-3.09;68.27;96862.63;1767829;81;27509;-80
2021/04/08 00:46:36;;;;;;;91.85;30.62;;;;;;;-3.22;68.11;96872.64;1767692;80;26492;-80
2021/04/08 00:49:03;;;;;;;95.80;32.88;;;;;;;-3.25;68.15;96871.11;1767733;81;25766;-80
2021/04/08 00:51:31;;;;;;;100.90;31.45;;;;;;;-3.23;68.21;96873.61;1767719;80;25794;-80
2021/04/08 00:53:58;;;;;;;89.83;29.82;;;;;;;-3.39;68.05;96861.83;1767806;80;25897;-80
2021/04/08 00:56:26;;;;;;;99.42;29.92;;;;;;;-3.43;68.26;96859.59;1767770;80;28293;-80
2021/04/08 00:58:54;;;;;;;73.15;26.27;;;;;;;-3.58;68.21;96871.51;1767605;80;25372;-80
2021/04/08 01:01:21;;;;;;;83.80;28.10;;;;;;;-3.58;68.49;96863.11;1767767;81;25802;-80
2021/04/08 01:03:48;;;;;;;81.90;26.20;;;;;;;-3.64;68.25;96867.63;1767643;80;25780;-80
2021/04/08 01:06:16;;;;;;;70.22;28.32;;;;;;;-3.77;68.13;96874.96;1767806;81;25722;-80
2021/04/08 01:08:44;;;;;;;122.53;40.08;;;;;;;-3.85;68.49;96874.78;1769509;79;27515;-80
2021/04/08 01:11:11;;;;;;;70.83;26.75;;;;;;;-3.87;68.53;96878.06;1793986;79;25780;-80
2021/04/08 01:13:40;;;;;;;68.87;27.32;;;;;;;-3.89;68.50;96879.52;1793924;79;25798;-80
2021/04/08 01:16:38;;;;;;;63.45;23.15;;;;;;;-3.86;68.70;96873.11;1793997;79;25673;-80
2021/04/08 01:20:00;;;;;;;55.70;21.85;;;;;;;-3.91;68.38;96866.11;1739810;78;25725;-78
2021/04/08 01:22:57;;;;;;;60.30;20.40;;;;;;;-3.96;68.52;96877.53;1693950;83;28469;-78
2021/04/08 01:26:22;;;;;;;69.90;25.08;;;;;;;-4.15;68.42;96866.46;1693793;83;25789;-77
2021/04/08 01:29:14;;;;;;;44.80;18.62;;;;;;;-4.22;68.42;96872.73;1693845;84;25851;-77
2021/04/08 01:31:43;;;;;;;52.23;20.00;;;;;;;-4.24;68.58;96872.05;1693986;84;25821;-78
2021/04/08 01:34:14;;;;;;;58.15;22.62;;;;;;;-4.35;68.61;96869.52;1693923;84;26285;-78
2021/04/08 01:36:45;;;;;;;44.10;18.23;;;;;;;-4.32;68.87;96880.25;1693825;84;27514;-77
2021/04/08 01:39:18;;;;;;;47.15;18.50;;;;;;;-4.28;69.12;96881.19;1693621;84;25719;-78
2021/04/08 01:41:48;;;;;;;44.95;17.10;;;;;;;-4.24;69.32;96878.64;1693885;84;25666;-78
2021/04/08 01:44:20;;;;;;;36.60;16.02;;;;;;;-4.12;69.28;96888.61;1693836;84;25729;-78
2021/04/08 01:47:04;;;;;;;34.35;16.20;;;;;;;-4.13;69.18;96886.45;1694107;84;25658;-78
2021/04/08 01:49:34;;;;;;;42.67;17.75;;;;;;;-4.12;69.29;96882.85;1694002;84;27748;-78
2021/04/08 01:52:04;;;;;;;38.23;16.85;;;;;;;-4.14;68.79;96887.42;1694005;84;26120;-77
2021/04/08 01:54:35;;;;;;;39.45;17.80;;;;;;;-4.22;68.86;96887.23;1694049;84;25635;-78
2021/04/08 01:57:06;;;;;;;50.60;18.05;;;;;;;-4.26;68.79;96883.20;1694053;84;26470;-77
2021/04/08 01:59:36;;;;;;;41.18;16.40;;;;;;;-4.33;68.79;96883.37;1694319;84;25885;-78
2021/04/08 02:02:04;;;;;;;37.53;16.25;;;;;;;-4.47;68.92;96887.19;1694057;84;27502;-77
2021/04/08 02:04:33;;;;;;;35.90;17.27;;;;;;;-4.55;69.24;96894.08;1693933;84;25813;-78
2021/04/08 02:07:02;;;;;;;48.48;18.80;;;;;;;-4.51;69.42;96890.23;1693931;84;26210;-78
2021/04/08 02:09:31;;;;;;;44.23;18.52;;;;;;;-4.40;69.25;96885.71;1693978;84;25829;-78
2021/04/08 02:12:01;;;;;;;31.80;13.68;;;;;;;-4.49;68.98;96889.63;1693928;84;25737;-78
2021/04/08 02:14:32;;;;;;;39.95;15.60;;;;;;;-4.48;69.47;96896.08;1693890;84;27472;-77
2021/04/08 02:17:00;;;;;;;62.30;24.70;;;;;;;-4.38;69.60;96896.95;1694056;84;25734;-78
2021/04/08 02:19:29;;;;;;;63.00;23.02;;;;;;;-4.41;69.37;96888.47;1690817;84;25699;-78
2021/04/08 02:21:58;;;;;;;41.90;17.07;;;;;;;-4.50;69.32;96891.91;1686252;84;25837;-78
2021/04/08 02:24:27;;;;;;;33.83;14.38;;;;;;;-4.47;69.50;96893.77;1686361;83;25812;-78
2021/04/08 02:26:55;;;;;;;32.85;14.35;;;;;;;-4.44;69.31;96892.20;1686248;83;28322;-78
2021/04/08 02:29:23;;;;;;;29.95;12.75;;;;;;;-4.38;69.24;96893.48;1686133;85;26108;-78
2021/04/08 02:31:52;;;;;;;27.37;12.13;;;;;;;-4.42;69.11;96890.27;1686371;84;25771;-78
2021/04/08 02:34:20;;;;;;;29.63;12.10;;;;;;;-4.42;68.93;96888.95;1686264;84;26269;-78
2021/04/08 02:36:47;;;;;;;25.08;11.20;;;;;;;-4.38;68.86;96890.85;1686355;84;25461;-78
2021/04/08 02:39:15;;;;;;;24.45;11.15;;;;;;;-4.30;69.06;96888.38;1686271;85;27510;-78
2021/04/08 02:41:45;;;;;;;24.67;11.08;;;;;;;-4.19;69.01;96885.66;1686254;84;25823;-78
2021/04/08 02:44:15;;;;;;;23.70;11.40;;;;;;;-4.17;68.64;96887.67;1686288;84;25773;-78
2021/04/08 02:46:43;;;;;;;28.25;11.35;;;;;;;-4.27;68.51;96882.02;1686289;84;26418;-77
2021/04/08 02:49:11;;;;;;;20.43;10.38;;;;;;;-4.29;68.47;96884.78;1686241;84;25758;-77
2021/04/08 02:51:59;;;;;;;18.85;9.78;;;;;;;-4.30;68.23;96884.91;1686091;84;27570;-78
2021/04/08 02:54:50;;;;;;;18.92;9.88;;;;;;;-4.38;68.30;96886.90;1686089;84;25740;-78
2021/04/08 02:57:29;;;;;;;20.65;10.58;;;;;;;-4.42;68.24;96883.69;1686256;84;25777;-77
2021/04/08 03:00:07;;;;;;;21.37;11.15;;;;;;;-4.41;68.42;96882.72;1682774;84;26398;-78
2021/04/08 03:02:38;;;;;;;21.65;11.53;;;;;;;-4.41;68.25;96886.67;1686236;84;25815;-79
2021/04/08 03:05:09;;;;;;;20.92;10.35;;;;;;;-4.57;68.16;96888.94;1686324;85;27591;-79
2021/04/08 03:07:49;;;;;;;26.82;11.63;;;;;;;-4.54;68.49;96890.00;1686308;84;26304;-79
2021/04/08 03:10:18;;;;;;;35.35;14.45;;;;;;;-4.63;68.47;96884.20;1686267;84;25272;-79
2021/04/08 03:12:49;;;;;;;41.30;15.48;;;;;;;-4.60;68.69;96889.70;1686140;84;26767;-79
2021/04/08 03:15:22;;;;;;;29.57;14.23;;;;;;;-4.59;68.80;96891.37;1686482;84;25663;-80
2021/04/08 03:17:52;;;;;;;49.53;23.45;;;;;;;-4.58;69.32;96889.90;1685365;84;28525;-80
2021/04/08 03:20:21;;;;;;;49.93;21.82;;;;;;;-4.52;69.22;96883.30;1686138;84;26112;-80
2021/04/08 03:22:51;;;;;;;31.85;14.25;;;;;;;-4.52;69.09;96891.20;1686247;84;25739;-79
2021/04/08 03:25:19;;;;;;;30.35;15.03;;;;;;;-4.47;69.32;96900.88;1686336;85;25401;-79
2021/04/08 03:27:50;;;;;;;29.65;12.98;;;;;;;-4.40;69.26;96904.16;1686292;85;25711;-79
2021/04/08 03:30:20;;;;;;;28.45;12.65;;;;;;;-4.42;69.09;96903.92;1686282;84;28480;-79
2021/04/08 03:32:48;;;;;;;33.73;14.63;;;;;;;-4.37;69.02;96912.28;1686237;84;26171;-79
2021/04/08 03:35:17;;;;;;;31.33;14.73;;;;;;;-4.39;69.00;96911.09;1686188;84;25824;-79
2021/04/08 03:37:45;;;;;;;31.10;15.18;;;;;;;-4.45;68.94;96914.23;1686171;84;25790;-79
2021/04/08 03:40:14;;;;;;;27.90;15.58;;;;;;;-4.45;69.08;96916.88;1686232;84;25763;-79
2021/04/08 03:42:42;;;;;;;25.62;12.43;;;;;;;-4.55;69.14;96916.47;1686230;85;27434;-79
2021/04/08 03:45:12;;;;;;;31.77;14.45;;;;;;;-4.65;69.17;96907.69;1686145;84;26065;-79
2021/04/08 03:47:42;;;;;;;29.85;13.60;;;;;;;-4.64;69.21;96915.45;1686191;85;26235;-79
2021/04/08 03:50:12;;;;;;;30.68;12.88;;;;;;;-4.63;69.22;96922.40;1686173;84;25693;-79
2021/04/08 03:52:40;;;;;;;25.20;13.08;;;;;;;-4.66;69.19;96919.18;1686161;85;25739;-79
2021/04/08 03:55:10;;;;;;;40.85;16.00;;;;;;;-4.66;69.10;96917.86;1686227;84;27688;-79
2021/04/08 03:57:41;;;;;;;51.98;22.58;;;;;;;-4.67;69.00;96916.19;1686180;84;25905;-80
2021/04/08 04:00:12;;;;;;;58.15;23.42;;;;;;;-4.70;69.42;96921.23;1686353;84;26015;-79
2021/04/08 04:02:41;;;;;;;97.35;33.25;;;;;;;-4.58;69.86;96918.88;1686240;84;27010;-79
2021/04/08 04:05:11;;;;;;;111.37;34.08;;;;;;;-4.49;70.01;96917.28;1686232;84;25825;-79
2021/04/08 04:07:41;;;;;;;92.67;30.20;;;;;;;-4.43;70.18;96916.74;1686180;85;27490;-80
2021/04/08 04:10:10;;;;;;;67.78;24.37;;;;;;;-4.33;70.42;96911.52;1686118;84;25785;-80
2021/04/08 04:12:39;;;;;;;63.00;23.05;;;;;;;-4.25;70.47;96911.23;1686192;84;25762;-80
2021/04/08 04:15:10;;;;;;;53.30;19.12;;;;;;;-4.14;70.56;96915.09;1686179;84;26459;-79
2021/04/08 04:17:37;;;;;;;45.50;17.10;;;;;;;-4.05;70.64;96917.41;1686213;84;25718;-79
2021/04/08 04:20:07;;;;;;;38.30;16.15;;;;;;;-3.86;70.81;96917.95;1686297;83;27575;-80
2021/04/08 04:22:37;;;;;;;35.85;16.90;;;;;;;-3.68;70.95;96913.22;1686258;84;25811;-80
2021/04/08 04:25:07;;;;;;;43.28;18.07;;;;;;;-3.51;70.87;96917.02;1686200;85;25709;-79
2021/04/08 04:27:35;;;;;;;41.30;16.73;;;;;;;-3.41;70.90;96912.58;1686190;84;26720;-80
2021/04/08 04:30:06;;;;;;;44.27;17.10;;;;;;;-3.30;70.94;96917.73;1686211;84;25801;-80
2021/04/08 04:32:34;;;;;;;35.05;17.17;;;;;;;-3.22;70.96;96913.08;1686172;85;27487;-79
2021/04/08 04:35:02;;;;;;;36.88;17.50;;;;;;;-3.11;71.04;96918.70;1686136;84;26070;-80
2021/04/08 04:37:30;;;;;;;41.80;18.73;;;;;;;-3.09;71.00;96907.52;1686172;84;25768;-80
2021/04/08 04:39:57;;;;;;;42.25;18.12;;;;;;;-2.99;71.12;96916.27;1686200;84;25808;-80
2021/04/08 04:42:25;;;;;;;55.70;22.70;;;;;;;-2.88;71.20;96912.64;1686127;84;25803;-80
2021/04/08 04:44:52;;;;;;;57.33;23.10;;;;;;;-2.87;71.21;96909.87;1686245;85;28664;-80
2021/04/08 04:47:19;;;;;;;50.38;22.67;;;;;;;-2.78;71.35;96906.41;1686209;84;26028;-80
2021/04/08 04:49:50;;;;;;;46.40;20.88;;;;;;;-2.72;71.31;96911.11;1686145;85;25715;-79
2021/04/08 04:52:18;;;;;;;44.23;18.87;;;;;;;-2.65;71.30;96912.20;1686190;84;25746;-80
2021/04/08 04:54:45;;;;;;;38.90;19.80;;;;;;;-2.57;71.42;96921.59;1686150;85;25889;-80
2021/04/08 04:57:13;;;;;;;40.95;19.92;;;;;;;-2.56;71.44;96919.30;1686144;85;27396;-80
2021/04/08 04:59:41;;;;;;;43.90;21.00;;;;;;;-2.46;71.65;96910.02;1686110;84;25750;-80
2021/04/08 05:02:10;;;;;;;39.58;19.92;;;;;;;-2.32;71.74;96923.28;1686286;85;26291;-80
2021/04/08 05:04:42;;;;;;;37.38;19.20;;;;;;;-2.16;71.80;96927.45;1686152;85;25730;-80
2021/04/08 05:07:10;;;;;;;35.38;17.95;;;;;;;-2.15;71.78;96921.67;1686369;83;25726;-80
2021/04/08 05:09:37;;;;;;;36.93;19.77;;;;;;;-2.14;71.84;96928.15;1686185;84;28392;-80
2021/04/08 05:12:06;;;;;;;31.05;18.27;;;;;;;-2.07;72.01;96926.61;1686131;84;25740;-80
2021/04/08 05:14:33;;;;;;;31.45;17.67;;;;;;;-2.00;71.97;96929.01;1686136;84;25766;-80
2021/04/08 05:17:01;;;;;;;28.50;16.97;;;;;;;-1.90;72.10;96933.77;1686152;84;26494;-80
2021/04/08 05:19:28;;;;;;;30.32;16.48;;;;;;;-1.76;72.16;96931.63;1686203;84;25796;-80
2021/04/08 05:21:56;;;;;;;32.13;17.23;;;;;;;-1.63;72.09;96933.44;1686358;85;28859;-80
2021/04/08 05:24:23;;;;;;;29.50;17.48;;;;;;;-1.52;72.04;96939.86;1686331;84;25813;-80
2021/04/08 05:26:51;;;;;;;28.77;17.00;;;;;;;-1.41;72.10;96933.52;1686420;85;26292;-79
2021/04/08 05:29:18;;;;;;;58.38;25.52;;;;;;;-1.29;72.22;96943.75;1686242;84;25818;-80
2021/04/08 05:31:46;;;;;;;53.90;28.60;;;;;;;-1.12;72.12;96938.98;1686419;85;25779;-80
2021/04/08 05:34:13;;;;;;;49.03;25.48;;;;;;;-1.03;72.01;96944.35;1686302;84;27729;-80
2021/04/08 05:36:41;;;;;;;48.75;27.85;;;;;;;-0.96;71.99;96952.02;1686328;85;26157;-80
2021/04/08 05:39:08;;;;;;;54.18;26.97;;;;;;;-0.98;71.92;96948.23;1686269;85;25822;-80
2021/04/08 05:41:36;;;;;;;94.58;33.00;;;;;;;-0.92;71.95;96950.75;1686457;84;25737;-80
2021/04/08 05:44:04;;;;;;;78.00;36.65;;;;;;;-0.95;71.67;96954.53;1686357;85;25785;-80
2021/04/08 05:46:32;;;;;;;41.00;21.15;;;;;;;-0.90;71.90;96956.73;1686398;84;27509;-80
2021/04/08 05:48:59;;;;;;;31.27;15.25;;;;;;;-0.87;71.56;96964.39;1686135;84;25706;-80
2021/04/08 05:51:27;;;;;;;30.77;11.93;;;;;;;-0.77;71.42;96974.42;1686438;84;25688;-79
2021/04/08 05:53:54;;;;;;;24.12;12.50;;;;;;;-0.64;71.44;96976.20;1686340;84;25908;-80
2021/04/08 05:56:22;;;;;;;24.07;13.20;;;;;;;-0.55;71.49;96982.40;1686297;85;25727;-80
2021/04/08 05:58:49;;;;;;;17.77;8.90;;;;;;;-0.47;71.51;96985.94;1686313;84;27556;-80
2021/04/08 06:01:17;;;;;;;26.30;11.73;;;;;;;-0.39;71.42;96991.33;1686245;85;25786;-80
2021/04/08 06:03:44;;;;;;;32.50;14.95;;;;;;;-0.40;71.25;96994.97;1686206;85;25737;-80
2021/04/08 06:06:12;;;;;;;32.98;16.45;;;;;;;-0.37;71.70;96997.81;1686121;84;25633;-80
2021/04/08 06:08:39;;;;;;;28.85;14.80;;;;;;;-0.34;72.03;96996.65;1686242;84;25704;-80
2021/04/08 06:11:07;;;;;;;20.68;12.37;;;;;;;-0.34;72.08;97005.93;1686277;83;27516;-81
2021/04/08 06:13:34;;;;;;;21.15;11.73;;;;;;;-0.33;72.30;97008.92;1686279;85;25679;-81
2021/04/08 06:16:02;;;;;;;22.35;11.93;;;;;;;-0.26;72.37;97006.02;1686311;85;26276;-80
2021/04/08 06:18:29;;;;;;;17.20;10.53;;;;;;;-0.15;72.50;97004.44;1686273;85;25799;-80
2021/04/08 06:20:57;;;;;;;15.48;9.68;;;;;;;-0.06;72.41;97003.51;1686250;83;25671;-81
2021/04/08 06:23:25;;;;;;;17.05;10.90;;;;;;;-0.04;72.43;97012.16;1686418;84;27506;-80
2021/04/08 06:25:53;;;;;;;21.42;12.33;;;;;;;0.00;72.33;97012.19;1686264;84;25964;-80
2021/04/08 06:28:20;;;;;;;23.70;12.03;;;;;;;0.00;72.21;97018.83;1676247;85;25821;-80
2021/04/08 06:30:48;;;;;;;28.70;13.68;;;;;;;0.02;72.37;97019.48;1686271;85;26389;-81
2021/04/08 06:33:15;;;;;;;29.25;13.13;;;;;;;0.08;72.51;97021.52;1686247;85;25825;-81
2021/04/08 06:35:43;;;;;;;25.82;14.35;;;;;;;0.12;72.58;97032.15;1686253;85;27567;-81
2021/04/08 06:38:10;;;;;;;25.23;14.70;;;;;;;0.14;72.67;97035.48;1686194;85;25749;-81
2021/04/08 06:40:38;;;;;;;28.73;15.70;;;;;;;0.23;72.84;97035.91;1686395;85;25696;-80
2021/04/08 06:43:10;;;;;;;34.88;16.73;;;;;;;0.33;72.90;97036.63;1686398;85;25828;-81
2021/04/08 06:45:43;;;;;;;36.38;17.32;;;;;;;0.42;72.89;97041.97;1686509;84;25683;-80
2021/04/08 06:48:19;;;;;;;;;;;;;;;0.45;72.60;97043.83;1688873;85;27628;-80
2021/04/08 06:50:49;;;;;;;41.55;19.95;;;;;;;0.47;72.81;97048.98;1686269;85;25664;-80
2021/04/08 06:53:18;;;;;;;41.98;19.27;;;;;;;0.58;72.93;97047.39;1686326;85;25815;-81
2021/04/08 06:55:51;;;;;;;49.98;23.83;;;;;;;0.63;72.69;97058.35;1686318;84;26384;-80
2021/04/08 06:58:20;;;;;;;33.05;18.80;;;;;;;0.66;72.79;97057.55;1686277;84;25861;-81
2021/04/08 07:00:48;;;;;;;26.15;15.90;;;;;;;0.72;72.89;97056.09;1686207;84;27485;-80
2021/04/08 07:03:15;;;;;;;24.57;13.58;;;;;;;0.72;72.81;97060.89;1686202;85;25729;-80
2021/04/08 07:05:43;;;;;;;30.35;14.98;;;;;;;0.68;72.86;97069.34;1686228;84;25750;-81
2021/04/08 07:08:10;;;;;;;47.85;24.10;;;;;;;0.75;72.93;97070.86;1686224;84;26509;-80
2021/04/08 07:10:41;;;;;;;51.15;24.67;;;;;;;0.70;72.95;97068.20;1686312;85;25309;-80
2021/04/08 07:13:09;;;;;;;32.40;18.52;;;;;;;0.69;73.09;97080.31;1686302;84;27506;-80
2021/04/08 07:15:36;;;;;;;24.95;14.25;;;;;;;0.75;73.03;97082.81;1686167;84;26071;-80
2021/04/08 07:18:06;;;;;;;26.25;15.10;;;;;;;0.76;73.16;97082.66;1686261;84;25734;-80
2021/04/08 07:20:34;;;;;;;27.77;16.57;;;;;;;0.71;73.26;97085.81;1686964;84;25718;-80
2021/04/08 07:23:13;;;;;;;33.28;20.20;;;;;;;0.75;73.46;97087.64;1694014;84;25296;-80
2021/04/08 07:26:06;;;;;;;26.15;14.53;;;;;;;0.77;73.34;97089.65;1693837;84;27504;-79
2021/04/08 07:28:41;;;;;;;24.15;12.35;;;;;;;0.86;73.45;97094.01;1681478;84;25823;-79
2021/04/08 07:31:32;;;;;;;17.20;9.93;;;;;;;0.96;73.40;97094.74;1693473;84;25863;-79
2021/04/08 07:34:03;;;;;;;14.03;8.33;;;;;;;1.00;73.42;97100.06;1693979;84;25562;-79
2021/04/08 07:36:34;;;;;;;18.77;10.20;;;;;;;1.14;73.44;97104.44;1693901;84;25818;-79
2021/04/08 07:39:08;;;;;;;14.87;9.15;;;;;;;1.25;73.27;97105.48;1693852;84;27559;-79
2021/04/08 07:41:37;;;;;;;15.72;7.87;;;;;;;1.33;73.28;97100.17;1677905;84;25893;-79
2021/04/08 07:44:11;;;;;;;17.00;7.22;;;;;;;1.42;73.26;97110.70;1693956;84;25726;-79
2021/04/08 07:46:42;;;;;;;15.03;6.53;;;;;;;1.52;72.83;97119.04;1693839;84;25972;-78
2021/04/08 07:49:31;;;;;;;7.05;4.33;;;;;;;1.57;72.56;97122.86;1693891;83;25866;-78
2021/04/08 07:52:21;;;;;;;8.83;4.62;;;;;;;1.51;72.17;97130.67;1693876;84;27351;-78
2021/04/08 07:55:11;;;;;;;16.85;6.92;;;;;;;1.47;72.11;97137.30;1693384;84;26419;-79
2021/04/08 07:58:13;;;;;;;15.78;7.47;;;;;;;1.41;71.93;97146.27;1693823;84;26287;-79
2021/04/08 08:00:47;;;;;;;24.45;8.95;;;;;;;1.32;72.11;97154.38;1678239;84;26451;-80
2021/04/08 08:03:36;;;;;;;20.57;8.63;;;;;;;1.29;71.88;97143.56;1693666;84;25718;-80
2021/04/08 08:06:04;;;;;;;16.30;7.17;;;;;;;1.33;71.82;97152.03;1693920;84;28405;-79
2021/04/08 08:08:43;;;;;;;16.60;6.78;;;;;;;1.38;71.83;97155.06;1693782;84;25819;-80
2021/04/08 08:11:14;;;;;;;11.68;5.80;;;;;;;1.46;71.66;97156.41;1693758;84;25820;-79
2021/04/08 08:13:52;;;;;;;12.30;6.95;;;;;;;1.57;71.56;97165.42;1693842;84;25900;-80
2021/04/08 08:16:26;;;;;;;12.95;5.85;;;;;;;1.61;71.34;97170.77;1693743;84;25702;-81
2021/04/08 08:18:55;;;;;;;11.20;6.47;;;;;;;1.62;71.30;97168.45;1693508;84;27635;-81
2021/04/08 08:21:35;;;;;;;13.93;7.05;;;;;;;1.78;71.40;97181.81;1691384;83;25881;-79
2021/04/08 08:24:00;;;;;;;14.30;7.12;;;;;;;1.87;71.06;97183.99;1685889;84;25842;-78
2021/04/08 08:26:41;;;;;;;11.22;6.78;;;;;;;1.93;70.86;97179.86;1686052;84;25773;-78
2021/04/08 08:29:28;;;;;;;12.90;6.20;;;;;;;2.05;70.63;97183.88;1686171;85;25809;-77
2021/04/08 08:32:03;;;;;;;15.30;7.17;;;;;;;2.17;70.48;97190.56;1686118;83;27618;-77
2021/04/08 08:34:37;;;;;;;39.95;16.85;;;;;;;2.28;70.29;97192.91;1685572;84;25830;-78
2021/04/08 08:37:11;;;;;;;66.47;25.57;;;;;;;2.38;70.16;97200.23;1686302;84;25674;-78
2021/04/08 08:39:47;;;;;;;13.68;7.78;;;;;;;2.35;69.91;97195.23;1686234;84;25528;-77
2021/04/08 08:42:19;;;;;;;9.73;6.30;;;;;;;2.37;69.63;97206.55;1686138;85;25966;-79
2021/04/08 08:44:47;;;;;;;11.03;6.62;;;;;;;2.45;69.56;97201.72;1686411;85;27517;-79
2021/04/08 08:47:33;;;;;;;10.75;5.97;;;;;;;2.53;69.38;97201.25;1686109;83;26402;-79
2021/04/08 08:50:06;;;;;;;12.70;6.25;;;;;;;2.58;69.16;97203.89;1686135;84;25730;-78
2021/04/08 08:52:37;;;;;;;13.35;7.80;;;;;;;2.61;68.99;97212.89;1686218;84;27160;-79
2021/04/08 08:55:09;;;;;;;18.55;8.08;;;;;;;2.65;68.69;97220.41;1686148;83;25829;-79
2021/04/08 08:57:39;;;;;;;16.52;8.83;;;;;;;2.72;68.48;97212.56;1686184;84;27524;-78
2021/04/08 09:00:10;;;;;;;17.05;8.63;;;;;;;2.80;68.36;97216.55;1686003;85;25715;-78
2021/04/08 09:02:41;;;;;;;17.60;8.48;;;;;;;2.82;68.07;97211.88;1686134;84;25769;-78
2021/04/08 09:05:14;;;;;;;24.20;11.97;;;;;;;2.84;67.92;97208.55;1686131;84;25512;-79
2021/04/08 09:07:46;;;;;;;18.30;8.43;;;;;;;2.84;67.81;97213.89;1685935;85;42908;-79
2021/04/08 09:10:17;;;;;;;23.47;11.20;;;;;;;2.81;67.82;97226.20;1686312;85;28329;-79
2021/04/08 09:12:45;;;;;;;21.37;9.88;;;;;;;2.63;67.60;97225.06;1685822;84;25746;-78
2021/04/08 09:15:14;;;;;;;14.65;7.05;;;;;;;2.61;67.76;97222.22;1686148;84;25830;-78
2021/04/08 09:17:45;;;;;;;15.08;8.75;;;;;;;2.57;67.80;97240.86;1676186;85;25855;-79
2021/04/08 09:20:17;;;;;;;14.25;9.18;;;;;;;2.40;67.74;97241.36;1686425;85;25733;-80
2021/04/08 09:23:11;;;;;;;15.65;8.18;;;;;;;2.24;68.20;97239.98;1684892;84;27549;-79
2021/04/08 09:25:55;;;;;;;13.28;7.30;;;;;;;2.19;68.58;97244.47;1684324;83;25819;-79
2021/04/08 09:28:26;;;;;;;16.75;9.20;;;;;;;2.24;68.75;97258.13;1684404;83;25873;-79
2021/04/08 09:31:06;;;;;;;18.77;10.53;;;;;;;2.22;69.02;97252.13;1684436;84;25714;-78
2021/04/08 09:33:50;;;;;;;17.57;11.50;;;;;;;2.40;69.53;97256.84;1684459;84;25818;-79
2021/04/08 09:36:27;;;;;;;21.73;13.88;;;;;;;2.59;69.40;97258.36;1684453;85;27501;-78
2021/04/08 09:39:06;;;;;;;19.40;10.58;;;;;;;2.73;69.30;97252.38;1684353;84;26186;-81
2021/04/08 09:41:57;;;;;;;23.80;15.32;;;;;;;2.83;68.94;97253.54;1684378;85;25734;-81
2021/04/08 09:44:27;;;;;;;19.95;12.47;;;;;;;2.97;68.99;97246.20;1684469;84;25743;-79
2021/04/08 09:46:59;;;;;;;28.65;14.00;;;;;;;3.17;68.88;97250.67;1684379;84;25918;-80
2021/04/08 09:49:46;;;;;;;121.35;42.35;;;;;;;3.25;68.46;97255.52;1684443;85;27505;-78
2021/04/08 09:52:15;;;;;;;41.85;18.02;;;;;;;3.33;68.47;97253.83;1684359;85;25329;-80
2021/04/08 09:54:58;;;;;;;35.68;18.17;;;;;;;3.44;68.17;97257.47;1684314;84;25706;-78
2021/04/08 09:57:39;;;;;;;33.95;19.50;;;;;;;3.56;67.85;97252.10;1684481;85;26391;-78
2021/04/08 10:00:14;;;;;;;27.15;14.53;;;;;;;3.79;67.75;97265.54;1684349;84;25905;-78
2021/04/08 10:03:07;;;;;;;21.77;12.75;;;;;;;4.02;67.30;97256.27;1684393;85;28541;-77
2021/04/08 10:05:38;;;;;;;14.60;8.40;;;;;;;4.27;67.11;97257.81;1600835;88;25911;-78
2021/04/08 10:08:08;;;;;;;13.78;7.95;;;;;;;4.75;66.58;97263.86;1600921;88;25822;-78
2021/04/08 10:10:43;;;;;;;13.68;6.90;;;;;;;5.00;66.07;97254.63;1600838;88;25733;-79
2021/04/08 10:16:14;;;;;;;12.83;7.80;;;;;;;5.70;64.88;97255.61;1857332;76;32365;-77
2021/04/08 10:18:43;;;;;;;11.15;6.50;;;;;;;6.01;64.78;97265.68;1852716;77;26282;-78
2021/04/08 10:21:16;;;;;;;18.98;8.43;;;;;;;6.05;63.64;97264.27;1852682;77;28354;-78
2021/04/08 10:23:48;;;;;;;13.78;8.25;;;;;;;5.76;63.05;97268.28;1851597;77;26044;-78
2021/04/08 10:26:22;;;;;;;13.40;6.87;;;;;;;5.83;63.23;97263.01;1852926;77;27082;-78
2021/04/08 10:28:59;;;;;;;25.15;12.93;;;;;;;5.85;62.37;97271.70;1852799;77;25654;-76
2021/04/08 10:31:34;;;;;;;12.73;7.15;;;;;;;5.86;62.71;97270.68;1852721;77;25466;-78
2021/04/08 10:34:07;;;;;;;9.68;6.50;;;;;;;5.69;61.68;97272.70;1852693;77;28503;-79
2021/04/08 10:36:42;;;;;;;8.60;5.62;;;;;;;5.37;61.45;97283.23;1852621;77;25619;-78
2021/04/08 10:39:29;;;;;;;9.85;6.30;;;;;;;5.20;61.55;97283.05;1852747;77;25688;-79
2021/04/08 10:42:10;;;;;;;10.10;5.83;;;;;;;4.98;61.51;97294.10;1852667;77;25608;-81
2021/04/08 10:44:45;;;;;;;8.00;5.30;;;;;;;4.74;61.50;97303.64;1852912;77;25778;-81
2021/04/08 10:47:27;;;;;;;11.50;5.37;;;;;;;4.64;61.74;97302.53;1852720;77;27491;-81
2021/04/08 10:50:00;;;;;;;8.10;4.92;;;;;;;4.55;61.76;97302.27;1852334;77;25751;-81
2021/04/08 10:52:36;;;;;;;12.82;6.58;;;;;;;4.49;61.93;97301.11;1852552;77;25640;-81
2021/04/08 10:55:12;;;;;;;8.95;5.65;;;;;;;4.46;62.02;97308.67;1852578;77;25892;-82
2021/04/08 10:57:41;;;;;;;6.90;4.55;;;;;;;4.45;62.00;97305.16;1852660;76;25357;-81
2021/04/08 11:00:12;;;;;;;11.20;5.28;;;;;;;4.63;62.13;97311.06;1852690;77;27562;-81
2021/04/08 11:02:43;;;;;;;8.95;4.87;;;;;;;4.81;61.86;97309.45;1852640;77;26351;-81
2021/04/08 11:05:25;;;;;;;12.35;5.95;;;;;;;5.10;61.46;97306.55;1852726;77;25740;-81
2021/04/08 11:07:57;;;;;;;8.80;4.67;;;;;;;5.19;60.54;97309.00;1852896;77;26579;-81
2021/04/08 11:10:31;;;;;;;7.97;4.60;;;;;;;5.33;60.70;97310.86;1852573;76;25804;-82
2021/04/08 11:13:00;;;;;;;8.23;5.47;;;;;;;5.44;59.91;97322.47;1852588;77;27602;-81
2021/04/08 11:15:34;;;;;;;6.30;4.70;;;;;;;5.44;59.43;97321.64;1852446;76;26116;-81
2021/04/08 11:18:18;;;;;;;19.35;8.15;;;;;;;5.50;59.82;97318.76;1852585;77;25724;-82
2021/04/08 11:20:49;;;;;;;15.45;6.72;;;;;;;5.89;59.71;97325.27;1852609;77;28161;-82
2021/04/08 11:23:22;;;;;;;21.07;8.85;;;;;;;6.23;59.55;97331.41;1852728;77;26564;-82
2021/04/08 11:26:07;;;;;;;17.92;8.33;;;;;;;6.33;59.26;97333.30;1852378;77;28431;-82
2021/04/08 11:28:41;;;;;;;17.02;7.97;;;;;;;6.47;59.14;97336.47;1851915;77;27075;-82
2021/04/08 11:31:14;;;;;;;20.52;8.95;;;;;;;6.38;58.24;97337.59;1851752;77;25326;-83
2021/04/08 11:33:42;;;;;;;14.23;7.90;;;;;;;6.35;58.22;97334.78;1851980;77;26645;-82
2021/04/08 11:36:20;;;;;;;12.35;6.05;;;;;;;6.39;57.81;97345.97;1851941;77;25763;-82
2021/04/08 11:38:48;;;;;;;15.53;7.85;;;;;;;6.36;57.07;97330.25;1852051;77;27602;-83
2021/04/08 11:41:16;;;;;;;18.12;8.48;;;;;;;6.57;57.08;97334.83;1851822;77;26327;-82
2021/04/08 11:43:50;;;;;;;17.37;7.90;;;;;;;6.68;57.30;97333.83;1852022;77;25698;-81
2021/04/08 11:46:35;;;;;;;12.73;6.90;;;;;;;6.82;56.98;97332.97;1851960;77;26225;-81
2021/04/08 11:49:21;;;;;;;18.60;8.03;;;;;;;6.90;56.81;97333.35;1852135;77;25915;-83
2021/04/08 11:51:49;;;;;;;12.98;6.35;;;;;;;6.90;55.83;97334.70;1852114;77;27601;-82